Time;durP1;ratioP1;P1;durP2;ratioP2;P2;SDS_P1;SDS_P2;PMS_P1;PMS_P2;Temp;Humidity;BMP_temperature;BMP_pressure;BME280_temperature;BME280_humidity;BME280_pressure;Samples;Min_cycle;Max_cycle;Signal;HPM_P1;HPM_P2
2022/01/12 00:01:20;;;;;;;22.63;15.63;;;0.20;94.10;;;;;;6244559;22;20706;-84
2022/01/12 00:03:48;;;;;;;23.23;16.10;;;0.30;94.10;;;;;;6245471;22;20169;-84
2022/01/12 00:06:15;;;;;;;22.40;15.77;;;0.20;94.00;;;;;;6245335;22;20193;-84
2022/01/12 00:08:45;;;;;;;22.73;16.10;;;0.20;94.10;;;;;;6246133;22;20165;-84
2022/01/12 00:11:13;;;;;;;23.97;16.43;;;0.20;94.10;;;;;;6243914;22;20232;-83
2022/01/12 00:13:40;;;;;;;25.47;16.63;;;0.30;94.10;;;;;;6244907;22;20170;-84
2022/01/12 00:16:07;;;;;;;25.43;16.67;;;0.20;94.10;;;;;;6244037;22;20192;-84
2022/01/12 00:18:35;;;;;;;24.17;16.30;;;0.20;94.10;;;;;;6245960;22;20205;-86
2022/01/12 00:21:03;;;;;;;22.83;16.60;;;0.20;94.10;;;;;;6245837;22;20550;-88
2022/01/12 00:23:32;;;;;;;21.53;15.97;;;0.20;94.10;;;;;;6245542;22;20173;-84
2022/01/12 00:26:05;;;;;;;23.87;16.50;;;0.20;94.00;;;;;;6245648;22;20252;-86
2022/01/12 00:34:02;;;;;;;25.37;17.00;;;0.10;94.20;;;;;;6247446;23;20195;-88
2022/01/12 00:36:31;;;;;;;26.50;16.90;;;0.10;94.10;;;;;;6245822;22;20281;-89
2022/01/12 00:38:58;;;;;;;26.63;17.57;;;0.10;94.30;;;;;;6247796;23;20177;-85
2022/01/12 00:41:27;;;;;;;23.57;16.33;;;0.10;94.40;;;;;;6249700;22;20249;-83
2022/01/12 00:43:59;;;;;;;23.53;16.30;;;0.10;94.40;;;;;;6253021;22;20256;-84
2022/01/12 00:46:27;;;;;;;24.30;16.87;;;0.10;94.10;;;;;;6246777;22;20247;-85
2022/01/12 00:48:56;;;;;;;24.93;16.77;;;0.10;94.00;;;;;;6246557;22;20255;-85
2022/01/12 00:51:26;;;;;;;25.43;17.20;;;0.10;94.00;;;;;;6245234;23;20224;-84
2022/01/12 00:53:53;;;;;;;27.20;18.00;;;0.10;94.00;;;;;;6247155;22;20169;-84
2022/01/12 00:56:20;;;;;;;25.53;17.17;;;0.00;94.40;;;;;;6246148;23;20193;-84
2022/01/12 00:58:49;;;;;;;26.40;17.33;;;0.00;94.50;;;;;;6248669;22;20176;-84
2022/01/12 01:01:18;;;;;;;25.47;16.97;;;0.10;94.40;;;;;;6247134;22;20197;-85
2022/01/12 01:03:45;;;;;;;25.73;17.40;;;0.00;94.40;;;;;;6250910;22;20165;-84
2022/01/12 01:06:12;;;;;;;26.30;17.70;;;0.00;94.50;;;;;;6254083;22;20209;-88
2022/01/12 01:08:40;;;;;;;25.83;17.33;;;0.10;94.30;;;;;;6262172;22;20195;-85
2022/01/12 01:11:07;;;;;;;25.83;16.77;;;0.00;94.40;;;;;;6250905;22;20555;-85
2022/01/12 01:13:42;;;;;;;26.10;18.00;;;0.00;94.50;;;;;;6244241;23;20200;-84
2022/01/12 01:16:18;;;;;;;27.30;17.47;;;-0.10;94.60;;;;;;6245537;22;20269;-84
2022/01/12 01:27:16;;;;;;;29.37;18.57;;;-0.60;95.70;;;;;;6246880;22;20288;-85
2022/01/12 01:29:43;;;;;;;27.60;18.67;;;-0.60;96.00;;;;;;6246931;23;20179;-87
2022/01/12 01:32:12;;;;;;;28.90;19.20;;;-0.70;96.30;;;;;;6245909;23;20203;-87
2022/01/12 01:34:44;;;;;;;31.63;19.07;;;-0.70;96.50;;;;;;6245872;22;20621;-84
2022/01/12 01:37:12;;;;;;;28.67;18.60;;;-0.60;96.50;;;;;;6245386;22;20204;-84
2022/01/12 01:39:40;;;;;;;26.80;18.10;;;-0.60;96.70;;;;;;6245351;22;20620;-84
2022/01/12 01:42:16;;;;;;;28.67;18.13;;;-0.60;96.30;;;;;;6245159;22;20201;-84
2022/01/12 01:53:21;;;;;;;27.83;18.33;;;-0.60;96.20;;;;;;6245961;22;20330;-86
2022/01/12 01:55:49;;;;;;;26.80;17.53;;;-0.70;96.50;;;;;;6245606;22;20266;-84
2022/01/12 01:58:17;;;;;;;29.23;18.47;;;-0.70;96.30;;;;;;6246016;22;20210;-85
2022/01/12 02:00:44;;;;;;;29.40;18.87;;;-0.70;96.20;;;;;;6246972;22;20175;-84
2022/01/12 02:03:13;;;;;;;29.07;18.70;;;-0.90;96.20;;;;;;6246752;22;20210;-86
2022/01/12 02:05:42;;;;;;;29.30;18.67;;;-0.80;96.50;;;;;;6247306;22;20209;-85
2022/01/12 02:08:09;;;;;;;28.07;18.13;;;-0.90;96.40;;;;;;6249800;22;20207;-87
2022/01/12 02:10:36;;;;;;;27.20;18.77;;;-0.90;96.60;;;;;;6249759;22;20267;-85
2022/01/12 02:13:04;;;;;;;28.70;18.63;;;-1.00;96.60;;;;;;6249697;22;20205;-84
2022/01/12 02:15:31;;;;;;;31.03;19.10;;;-1.00;96.70;;;;;;6250645;22;20190;-86
2022/01/12 02:18:20;;;;;;;29.50;19.37;;;-1.20;97.00;;;;;;6250002;22;20205;-85
2022/01/12 02:40:21;;;;;;;30.93;20.03;;;-1.30;97.80;;;;;;6245751;23;20168;-85
2022/01/12 02:42:57;;;;;;;31.10;19.30;;;-1.30;97.90;;;;;;6245651;22;20202;-85
2022/01/12 02:51:10;;;;;;;32.33;20.37;;;-1.30;98.30;;;;;;6245899;22;20202;-85
2022/01/12 02:53:39;;;;;;;32.20;20.60;;;-1.20;98.30;;;;;;6244890;23;20175;-84
2022/01/12 02:56:07;;;;;;;30.90;20.60;;;-1.20;98.20;;;;;;6246286;22;20166;-85
2022/01/12 02:58:34;;;;;;;32.37;19.73;;;-1.10;98.10;;;;;;6245969;22;20161;-85
2022/01/12 03:01:25;;;;;;;32.97;20.70;;;-1.00;97.80;;;;;;6246173;22;20170;-85
2022/01/12 03:03:55;;;;;;;32.03;19.90;;;-1.00;97.70;;;;;;6245489;23;20166;-84
2022/01/12 03:06:26;;;;;;;30.40;20.37;;;-0.90;97.70;;;;;;6247049;22;20189;-84
2022/01/12 03:08:56;;;;;;;31.30;20.30;;;-0.90;97.60;;;;;;6247355;22;20253;-85
2022/01/12 03:11:25;;;;;;;29.77;19.60;;;-0.80;97.30;;;;;;6247322;22;20506;-84
2022/01/12 03:13:55;;;;;;;29.23;19.97;;;-0.60;97.20;;;;;;6247735;22;20244;-84
2022/01/12 03:16:25;;;;;;;31.20;20.60;;;-0.60;96.70;;;;;;6247255;22;20272;-88
2022/01/12 03:18:55;;;;;;;32.63;20.37;;;-0.60;96.50;;;;;;6247208;22;20176;-85
2022/01/12 03:21:27;;;;;;;32.30;20.33;;;-0.60;96.50;;;;;;6245947;23;20202;-85
2022/01/12 03:23:56;;;;;;;30.67;20.27;;;-0.60;96.50;;;;;;6249656;22;20202;-89
2022/01/12 03:26:25;;;;;;;31.70;19.70;;;-0.60;96.50;;;;;;6251038;22;20200;-85
2022/01/12 03:28:54;;;;;;;30.07;20.47;;;-0.60;96.50;;;;;;6256523;22;20173;-83
2022/01/12 03:31:23;;;;;;;33.40;20.83;;;-0.60;96.50;;;;;;6263324;22;20197;-86
2022/01/12 03:34:00;;;;;;;32.87;21.50;;;-0.60;96.30;;;;;;6248967;22;20772;-84
2022/01/12 03:39:12;;;;;;;37.80;21.67;;;-0.60;96.40;;;;;;6245491;22;20161;-84
2022/01/12 03:41:42;;;;;;;35.67;21.73;;;-0.70;96.50;;;;;;6244814;23;20262;-85
2022/01/12 03:44:11;;;;;;;36.23;22.83;;;-0.70;96.50;;;;;;6247250;22;20197;-85
2022/01/12 03:46:44;;;;;;;34.70;23.07;;;-0.70;96.50;;;;;;6247171;22;20201;-86
2022/01/12 03:49:11;;;;;;;36.23;22.13;;;-0.60;96.70;;;;;;6246193;23;20191;-86
2022/01/12 03:51:38;;;;;;;32.53;21.97;;;-0.60;96.60;;;;;;6233601;22;20201;-86
2022/01/12 03:54:06;;;;;;;37.57;22.63;;;-0.70;96.50;;;;;;6246491;23;20169;-85
2022/01/12 03:56:35;;;;;;;33.97;22.23;;;-0.60;96.50;;;;;;6244852;22;20196;-85
2022/01/12 03:59:04;;;;;;;38.93;22.80;;;-0.60;96.50;;;;;;6245854;22;20169;-85
2022/01/12 04:01:31;;;;;;;37.73;23.93;;;-0.60;96.50;;;;;;6229259;23;20220;-85
2022/01/12 04:04:02;;;;;;;36.77;21.97;;;-0.60;96.50;;;;;;6244884;23;20168;-85
2022/01/12 04:09:14;;;;;;;38.30;22.53;;;-0.50;96.50;;;;;;6245713;23;20243;-85
2022/01/12 04:11:43;;;;;;;35.93;22.90;;;-0.50;96.10;;;;;;6245616;23;20277;-85
2022/01/12 04:14:10;;;;;;;38.67;22.83;;;-0.60;96.20;;;;;;6245502;23;20662;-90
2022/01/12 04:16:38;;;;;;;37.13;22.23;;;-0.60;96.40;;;;;;6244809;22;20208;-86
2022/01/12 04:19:06;;;;;;;33.80;21.63;;;-0.60;96.50;;;;;;6246533;23;20709;-85
2022/01/12 04:21:41;;;;;;;36.50;23.40;;;-0.60;96.50;;;;;;6245412;23;20219;-85
2022/01/12 04:24:09;;;;;;;38.03;22.33;;;-0.60;96.50;;;;;;6245760;23;20165;-85
2022/01/12 04:26:36;;;;;;;39.87;23.17;;;-0.60;96.50;;;;;;6245020;23;20220;-85
2022/01/12 04:29:06;;;;;;;36.20;23.07;;;-0.60;96.20;;;;;;6194949;23;20205;-85
2022/01/12 04:31:34;;;;;;;36.03;22.33;;;-0.70;96.20;;;;;;6244659;23;20202;-85
2022/01/12 04:34:01;;;;;;;36.77;21.87;;;-0.70;96.50;;;;;;6245272;23;20220;-87
2022/01/12 04:36:28;;;;;;;39.77;22.43;;;-0.60;96.40;;;;;;6244837;23;20645;-83
2022/01/12 04:38:56;;;;;;;37.67;22.63;;;-0.60;96.10;;;;;;6245602;23;20172;-86
2022/01/12 04:41:24;;;;;;;32.70;20.33;;;-0.70;96.30;;;;;;6245662;23;20216;-85
2022/01/12 04:43:52;;;;;;;31.93;20.10;;;-0.70;96.30;;;;;;6246011;23;20376;-86
2022/01/12 04:46:39;;;;;;;33.40;21.10;;;-0.80;96.00;;;;;;6245857;23;20569;-85
2022/01/12 04:51:56;;;;;;;36.50;21.17;;;-0.90;96.20;;;;;;6228218;23;20203;-88
2022/01/12 04:54:23;;;;;;;35.47;21.60;;;-1.00;96.40;;;;;;6245917;23;20192;-85
2022/01/12 04:56:50;;;;;;;36.80;21.63;;;-1.00;96.70;;;;;;6245489;23;20288;-85
2022/01/12 04:59:17;;;;;;;35.07;21.67;;;-0.90;96.50;;;;;;6246282;23;20165;-84
2022/01/12 05:01:56;;;;;;;33.90;21.03;;;-0.90;96.40;;;;;;6244378;22;20195;-88
2022/01/12 05:07:27;;;;;;;34.53;20.97;;;-0.90;96.40;;;;;;6247016;23;20204;-85
2022/01/12 05:13:00;;;;;;;35.80;21.90;;;-0.70;95.80;;;;;;6246432;23;20257;-84
2022/01/12 05:15:32;;;;;;;36.50;22.33;;;-0.80;95.90;;;;;;6244963;23;20236;-84
2022/01/12 05:18:00;;;;;;;41.60;22.20;;;-0.90;96.30;;;;;;6245040;23;20687;-85
2022/01/12 05:20:28;;;;;;;34.27;21.53;;;-1.10;96.40;;;;;;6246368;23;20216;-85
2022/01/12 05:22:55;;;;;;;39.60;22.27;;;-1.10;96.40;;;;;;6219189;23;20206;-84
2022/01/12 05:25:23;;;;;;;37.43;20.97;;;-1.00;96.50;;;;;;6247228;22;20176;-84
2022/01/12 05:27:52;;;;;;;33.67;20.00;;;-1.00;96.70;;;;;;6246515;22;20264;-84
2022/01/12 05:30:19;;;;;;;33.70;20.77;;;-0.80;96.50;;;;;;6247787;22;20480;-84
2022/01/12 05:32:46;;;;;;;34.87;20.37;;;-0.60;96.10;;;;;;6246736;22;20272;-86
2022/01/12 05:35:17;;;;;;;36.47;21.83;;;-0.50;95.70;;;;;;6246533;22;20169;-84
2022/01/12 05:37:45;;;;;;;35.47;20.37;;;-0.40;95.50;;;;;;6245054;22;20192;-84
2022/01/12 05:40:16;;;;;;;34.33;19.83;;;-0.30;95.40;;;;;;6246650;22;20166;-84
2022/01/12 05:42:44;;;;;;;33.43;20.43;;;-0.40;95.00;;;;;;6248072;22;20267;-85
2022/01/12 05:45:11;;;;;;;32.77;19.93;;;-0.50;95.30;;;;;;6248969;22;20200;-92
2022/01/12 05:50:25;;;;;;;33.00;19.20;;;-0.60;95.00;;;;;;6225226;23;20165;-84
2022/01/12 05:52:52;;;;;;;31.40;20.03;;;-0.70;95.00;;;;;;6264886;22;20224;-85
2022/01/12 05:55:20;;;;;;;37.57;21.07;;;-0.60;95.10;;;;;;6255469;23;20193;-85
2022/01/12 05:57:48;;;;;;;35.37;20.50;;;-0.70;95.30;;;;;;6246728;23;20250;-85
2022/01/12 06:00:18;;;;;;;34.07;20.53;;;-0.70;95.50;;;;;;6248039;23;20459;-84
2022/01/12 06:02:45;;;;;;;34.87;21.60;;;-0.70;95.40;;;;;;6251270;22;20532;-83
2022/01/12 06:05:14;;;;;;;35.87;21.37;;;-0.80;95.40;;;;;;6248151;22;20173;-83
2022/01/12 06:07:54;;;;;;;34.97;20.67;;;-0.60;97.20;;;;;;6247500;22;20210;-84
2022/01/12 06:10:23;;;;;;;34.40;20.63;;;-0.40;96.40;;;;;;6246329;22;20160;-85
2022/01/12 06:12:50;;;;;;;33.60;20.43;;;-0.50;95.70;;;;;;6250048;22;20198;-81
2022/01/12 06:15:17;;;;;;;33.30;20.20;;;-0.50;95.90;;;;;;6252397;22;20169;-81
2022/01/12 06:17:44;;;;;;;35.80;21.03;;;-0.20;97.20;;;;;;6248175;22;20197;-81
2022/01/12 06:20:12;;;;;;;33.00;20.07;;;0.00;96.00;;;;;;6246095;22;20639;-84
2022/01/12 06:22:39;;;;;;;32.00;19.20;;;0.30;95.60;;;;;;6248536;22;20199;-83
2022/01/12 06:25:13;;;;;;;32.63;20.03;;;0.20;95.10;;;;;;6248057;22;20176;-84
2022/01/12 06:27:49;;;;;;;31.80;20.63;;;0.40;94.80;;;;;;6248117;22;20262;-85
2022/01/12 06:33:00;;;;;;;30.37;18.60;;;0.50;94.10;;;;;;6248904;22;20274;-84
2022/01/12 06:35:28;;;;;;;29.63;19.00;;;0.40;94.10;;;;;;6250266;22;20695;-89
2022/01/12 06:37:55;;;;;;;27.30;18.40;;;0.50;93.60;;;;;;6249568;22;20199;-85
2022/01/12 06:40:24;;;;;;;28.73;19.20;;;0.30;93.60;;;;;;6252265;22;20197;-86
2022/01/12 06:42:51;;;;;;;27.77;17.67;;;0.00;94.00;;;;;;6249073;22;20279;-83
2022/01/12 06:45:18;;;;;;;29.77;19.30;;;0.10;94.90;;;;;;6250987;22;20259;-83
2022/01/12 06:47:45;;;;;;;29.90;18.47;;;0.10;94.00;;;;;;6254899;22;20581;-84
2022/01/12 06:50:12;;;;;;;30.20;18.90;;;0.40;94.10;;;;;;6256265;22;20246;-83
2022/01/12 06:52:39;;;;;;;30.77;18.40;;;0.20;93.30;;;;;;6253158;22;20256;-83
2022/01/12 06:55:07;;;;;;;27.07;18.60;;;-0.10;93.60;;;;;;6251246;22;20166;-83
2022/01/12 06:57:36;;;;;;;30.13;18.73;;;-0.10;94.00;;;;;;6249483;22;20274;-85
2022/01/12 07:00:05;;;;;;;27.77;18.13;;;-0.30;94.00;;;;;;6248824;22;20627;-84
2022/01/12 07:02:32;;;;;;;28.87;18.17;;;-0.20;94.00;;;;;;6247888;22;20278;-85
2022/01/12 07:04:59;;;;;;;25.27;16.73;;;0.10;95.70;;;;;;6249098;22;20190;-85
2022/01/12 07:07:26;;;;;;;25.10;16.80;;;0.60;94.00;;;;;;6252647;22;20276;-84
2022/01/12 07:09:53;;;;;;;28.10;18.10;;;1.00;92.80;;;;;;6251971;23;20169;-85
2022/01/12 07:12:21;;;;;;;26.10;17.33;;;0.80;91.20;;;;;;6253160;22;20221;-83
2022/01/12 07:14:49;;;;;;;24.77;16.07;;;0.90;92.00;;;;;;6253456;22;20488;-84
2022/01/12 07:17:16;;;;;;;21.73;15.13;;;1.10;91.70;;;;;;6253307;22;20272;-83
2022/01/12 07:19:43;;;;;;;22.73;15.23;;;0.90;91.40;;;;;;6254371;22;20259;-85
2022/01/12 07:22:11;;;;;;;23.00;15.00;;;0.70;90.80;;;;;;6253171;22;20648;-83
2022/01/12 07:24:38;;;;;;;24.67;16.33;;;0.30;91.40;;;;;;6251871;23;20263;-86
2022/01/12 07:27:05;;;;;;;21.87;14.47;;;0.40;93.10;;;;;;6253584;22;20260;-83
2022/01/12 07:29:33;;;;;;;20.70;14.10;;;0.70;93.20;;;;;;6253992;22;20209;-83
2022/01/12 07:32:01;;;;;;;21.43;14.47;;;0.60;90.80;;;;;;6253365;22;20258;-83
2022/01/12 07:34:28;;;;;;;21.50;13.97;;;0.80;91.70;;;;;;6254054;22;20200;-84
2022/01/12 07:36:56;;;;;;;20.97;14.67;;;0.70;91.00;;;;;;6253682;22;20667;-83
2022/01/12 07:39:23;;;;;;;21.00;13.97;;;0.80;90.60;;;;;;6252425;22;20544;-84
2022/01/12 07:41:50;;;;;;;20.47;14.53;;;0.80;91.70;;;;;;6250097;22;20220;-84
2022/01/12 07:44:17;;;;;;;21.40;13.73;;;1.10;91.20;;;;;;6248383;22;20173;-86
2022/01/12 07:46:44;;;;;;;19.03;13.43;;;0.90;90.30;;;;;;6249129;22;20273;-86
2022/01/12 07:49:13;;;;;;;21.93;14.50;;;1.00;90.80;;;;;;6251114;22;20201;-83
2022/01/12 07:51:40;;;;;;;19.33;12.80;;;0.90;90.00;;;;;;6251746;22;20193;-84
2022/01/12 07:54:07;;;;;;;22.20;13.77;;;1.00;90.30;;;;;;6251550;22;20193;-84
2022/01/12 07:56:34;;;;;;;19.17;13.10;;;0.90;90.20;;;;;;6250596;22;20195;-83
2022/01/12 07:59:01;;;;;;;20.50;13.10;;;0.80;89.40;;;;;;6252507;22;20211;-83
2022/01/12 08:01:28;;;;;;;20.13;14.93;;;1.00;91.00;;;;;;6251158;22;20196;-83
2022/01/12 08:03:55;;;;;;;21.03;14.23;;;1.00;89.20;;;;;;6252376;22;20182;-85
2022/01/12 08:06:24;;;;;;;18.40;12.63;;;1.20;90.20;;;;;;6252159;22;20200;-83
2022/01/12 08:08:51;;;;;;;20.07;13.00;;;1.00;89.00;;;;;;6253317;22;20248;-83
2022/01/12 08:11:18;;;;;;;19.57;11.43;;;1.00;89.50;;;;;;6253497;22;20592;-83
2022/01/12 08:13:46;;;;;;;17.33;12.30;;;0.90;89.30;;;;;;6254832;22;20189;-83
2022/01/12 08:16:13;;;;;;;18.40;13.17;;;0.90;89.10;;;;;;6262169;22;20223;-85
2022/01/12 08:18:40;;;;;;;18.40;12.33;;;0.70;88.10;;;;;;6258165;22;20180;-84
2022/01/12 08:21:07;;;;;;;17.80;12.70;;;0.90;90.20;;;;;;6249005;22;20252;-83
2022/01/12 08:23:36;;;;;;;18.30;12.70;;;0.90;89.30;;;;;;6249501;22;20620;-84
2022/01/12 08:26:03;;;;;;;20.27;13.77;;;0.60;89.50;;;;;;6250057;22;20611;-84
2022/01/12 08:28:31;;;;;;;18.07;12.33;;;0.50;90.00;;;;;;6251196;22;20639;-83
2022/01/12 08:30:58;;;;;;;18.87;12.93;;;0.40;90.40;;;;;;6249224;22;20180;-85
2022/01/12 08:33:26;;;;;;;22.37;14.00;;;0.40;90.20;;;;;;6251074;22;20271;-84
2022/01/12 08:35:54;;;;;;;22.33;14.13;;;0.50;90.60;;;;;;6252166;22;20180;-86
2022/01/12 08:38:21;;;;;;;18.47;12.97;;;0.50;90.20;;;;;;6252854;22;20197;-84
2022/01/12 08:40:49;;;;;;;16.93;12.23;;;0.80;90.00;;;;;;6252621;22;20247;-84
2022/01/12 08:43:16;;;;;;;19.30;14.17;;;0.70;88.00;;;;;;6251621;22;20231;-83
2022/01/12 08:45:44;;;;;;;19.73;13.10;;;0.30;89.10;;;;;;6252760;22;20207;-85
2022/01/12 08:48:11;;;;;;;21.43;13.67;;;0.30;90.40;;;;;;6251336;22;20217;-87
2022/01/12 08:50:38;;;;;;;20.33;13.43;;;0.30;90.90;;;;;;6252174;22;20718;-85
2022/01/12 08:53:06;;;;;;;18.43;12.67;;;0.10;90.60;;;;;;6251778;22;20203;-86
2022/01/12 08:55:33;;;;;;;16.87;11.90;;;0.30;90.50;;;;;;6248235;22;20524;-86
2022/01/12 08:58:02;;;;;;;18.70;12.30;;;0.40;90.00;;;;;;6249949;22;20243;-85
2022/01/12 09:00:29;;;;;;;18.70;12.67;;;0.20;90.00;;;;;;6251688;22;20264;-83
2022/01/12 09:02:56;;;;;;;20.50;13.10;;;0.10;90.40;;;;;;6251236;22;20677;-84
2022/01/12 09:05:23;;;;;;;18.50;12.77;;;0.40;91.20;;;;;;6251481;22;20605;-84
2022/01/12 09:07:52;;;;;;;16.87;11.87;;;0.50;89.60;;;;;;6251456;22;20256;-86
2022/01/12 09:10:20;;;;;;;17.40;12.70;;;0.60;90.00;;;;;;6250829;22;20171;-84
2022/01/12 09:12:47;;;;;;;18.03;12.37;;;0.70;88.70;;;;;;6251555;22;20227;-83
2022/01/12 09:15:16;;;;;;;17.27;12.43;;;0.50;89.60;;;;;;6251273;22;20197;-84
2022/01/12 09:17:44;;;;;;;17.67;12.63;;;0.30;89.90;;;;;;6251480;22;20208;-85
2022/01/12 09:20:12;;;;;;;17.90;12.07;;;0.20;90.70;;;;;;6256242;22;20210;-82
2022/01/12 09:22:40;;;;;;;17.70;11.83;;;0.40;90.20;;;;;;6236716;22;20212;-82
2022/01/12 09:25:08;;;;;;;19.03;13.63;;;0.80;90.30;;;;;;6250643;22;20215;-83
2022/01/12 09:27:35;;;;;;;17.90;12.57;;;0.80;86.30;;;;;;6250204;22;20282;-83
2022/01/12 09:30:02;;;;;;;20.17;13.17;;;0.60;89.50;;;;;;6252525;22;20197;-82
2022/01/12 09:32:31;;;;;;;17.63;12.27;;;0.40;89.10;;;;;;6250602;22;20248;-84
2022/01/12 09:34:58;;;;;;;18.60;12.97;;;0.50;90.40;;;;;;6249513;22;20637;-89
2022/01/12 09:37:25;;;;;;;18.27;12.53;;;0.60;89.50;;;;;;6250158;22;20279;-84
2022/01/12 09:39:52;;;;;;;18.47;12.37;;;0.50;90.00;;;;;;6251155;22;20212;-85
2022/01/12 09:42:19;;;;;;;21.33;13.97;;;0.60;90.30;;;;;;6252321;22;20248;-84
2022/01/12 09:44:48;;;;;;;19.57;12.97;;;0.90;89.00;;;;;;6252242;22;20168;-84
2022/01/12 09:47:16;;;;;;;20.90;14.40;;;0.90;87.90;;;;;;6251951;22;20203;-84
2022/01/12 09:49:47;;;;;;;19.20;13.30;;;1.10;86.50;;;;;;6252555;22;20203;-85
2022/01/12 09:52:15;;;;;;;18.27;12.43;;;0.90;86.40;;;;;;6252274;22;20204;-84
2022/01/12 09:54:43;;;;;;;17.63;12.43;;;0.80;86.30;;;;;;6251974;22;20213;-85
2022/01/12 09:57:10;;;;;;;17.57;12.40;;;0.70;86.20;;;;;;6252787;22;20252;-84
2022/01/12 09:59:38;;;;;;;17.67;12.27;;;0.40;86.00;;;;;;6252497;22;20486;-84
2022/01/12 10:02:05;;;;;;;17.70;12.80;;;0.40;88.00;;;;;;6252352;22;20248;-84
2022/01/12 10:04:33;;;;;;;17.37;12.90;;;0.40;88.00;;;;;;6252210;22;20264;-85
2022/01/12 10:07:03;;;;;;;17.20;12.27;;;0.50;90.10;;;;;;6250263;23;20200;-87
2022/01/12 10:09:35;;;;;;;19.13;12.90;;;0.70;88.60;;;;;;6253417;22;20176;-85
2022/01/12 10:12:05;;;;;;;16.30;12.00;;;0.70;88.40;;;;;;6252085;22;20258;-85
2022/01/12 10:14:41;;;;;;;15.50;11.07;;;0.80;86.30;;;;;;6253230;22;20192;-87
2022/01/12 10:17:08;;;;;;;15.30;10.87;;;1.20;86.60;;;;;;6252877;22;20487;-86
2022/01/12 10:19:36;;;;;;;14.37;10.80;;;1.30;83.10;;;;;;6254167;22;20264;-85
2022/01/12 10:22:06;;;;;;;15.63;11.67;;;1.40;81.50;;;;;;6253849;22;20215;-85
2022/01/12 10:24:38;;;;;;;17.17;11.30;;;1.10;82.30;;;;;;6254090;22;20204;-87
2022/01/12 10:27:12;;;;;;;17.43;11.67;;;1.60;86.00;;;;;;6248201;22;20205;-87
2022/01/12 10:29:40;;;;;;;15.73;11.00;;;1.80;80.80;;;;;;6250314;22;20165;-85
2022/01/12 10:32:09;;;;;;;15.23;11.40;;;1.60;79.30;;;;;;6250214;22;20220;-84
2022/01/12 10:34:41;;;;;;;15.60;10.87;;;1.40;80.10;;;;;;6247321;23;20204;-85
2022/01/12 10:37:13;;;;;;;17.00;12.17;;;1.70;83.10;;;;;;6247908;22;20199;-85
2022/01/12 10:39:42;;;;;;;15.73;11.73;;;1.80;77.80;;;;;;6249566;22;20546;-85
2022/01/12 10:42:11;;;;;;;15.83;11.63;;;1.70;77.30;;;;;;6249080;22;20280;-86
2022/01/12 10:44:41;;;;;;;17.97;11.90;;;1.40;80.90;;;;;;6249863;22;20472;-85
2022/01/12 10:47:12;;;;;;;17.50;11.60;;;1.20;82.10;;;;;;6249633;22;20208;-86
2022/01/12 10:49:41;;;;;;;19.23;11.70;;;1.10;83.90;;;;;;6251269;22;20207;-84
2022/01/12 10:52:10;;;;;;;15.77;11.30;;;1.10;83.60;;;;;;6249875;22;20277;-84
2022/01/12 10:54:50;;;;;;;15.30;11.03;;;1.50;84.30;;;;;;6250612;22;20193;-84
2022/01/12 10:57:23;;;;;;;16.07;10.60;;;2.00;78.40;;;;;;6249194;22;20653;-84
2022/01/12 11:00:19;;;;;;;13.87;10.40;;;2.40;78.30;;;;;;6249747;22;20534;-85
2022/01/12 11:02:48;;;;;;;15.13;10.10;;;2.60;71.50;;;;;;6250049;22;20193;-85
2022/01/12 11:05:16;;;;;;;14.10;10.77;;;2.60;68.80;;;;;;6252618;22;20475;-85
2022/01/12 11:07:43;;;;;;;14.13;9.97;;;1.90;72.50;;;;;;6250717;22;20288;-84
2022/01/12 11:10:13;;;;;;;15.57;10.87;;;1.90;75.20;;;;;;6253078;22;20204;-86
2022/01/12 11:12:41;;;;;;;17.43;10.57;;;2.00;72.40;;;;;;6249283;22;20197;-85
2022/01/12 11:15:09;;;;;;;16.50;11.23;;;2.20;72.90;;;;;;6249184;22;20641;-85
2022/01/12 11:17:38;;;;;;;22.47;11.73;;;2.10;71.90;;;;;;6249871;22;20219;-86
2022/01/12 11:20:11;;;;;;;17.97;11.90;;;2.10;73.00;;;;;;6249945;22;20192;-86
2022/01/12 11:22:59;;;;;;;16.00;11.57;;;1.90;72.90;;;;;;6250127;22;20193;-86
2022/01/12 11:25:31;;;;;;;16.13;11.53;;;1.90;72.80;;;;;;6250048;22;20164;-86
2022/01/12 11:28:07;;;;;;;16.23;11.13;;;2.00;73.50;;;;;;6249704;22;20579;-84
2022/01/12 11:30:35;;;;;;;13.17;10.00;;;2.10;73.20;;;;;;6251279;22;20165;-85
2022/01/12 11:33:04;;;;;;;17.20;11.87;;;2.20;71.20;;;;;;6234238;22;20287;-86
2022/01/12 11:35:34;;;;;;;14.13;10.60;;;2.10;69.30;;;;;;6247732;23;20671;-85
2022/01/12 11:38:01;;;;;;;16.63;11.47;;;1.90;74.10;;;;;;6247617;22;20251;-84
2022/01/12 11:40:48;;;;;;;15.93;11.67;;;2.10;70.90;;;;;;6248808;22;20166;-84
2022/01/12 11:43:21;;;;;;;15.73;11.07;;;2.20;70.00;;;;;;6249577;22;20193;-83
2022/01/12 11:46:02;;;;;;;15.60;10.90;;;2.60;67.30;;;;;;6249148;22;20169;-84
2022/01/12 11:48:33;;;;;;;16.07;11.03;;;3.00;67.60;;;;;;6247899;22;20637;-84
2022/01/12 11:51:00;;;;;;;14.80;11.37;;;3.10;62.30;;;;;;6247930;22;20953;-87
2022/01/12 11:53:30;;;;;;;15.87;11.60;;;3.00;63.30;;;;;;6250311;22;20227;-88
2022/01/12 11:56:21;;;;;;;17.73;11.67;;;2.80;64.10;;;;;;6251283;22;20181;-84
2022/01/12 11:58:53;;;;;;;16.93;12.20;;;2.30;68.40;;;;;;6248412;22;20173;-85
2022/01/12 12:01:22;;;;;;;18.33;12.87;;;2.10;68.40;;;;;;6248660;22;20201;-87
2022/01/12 12:04:00;;;;;;;16.63;12.40;;;1.90;70.70;;;;;;6248560;22;20177;-85
2022/01/12 12:06:27;;;;;;;17.30;12.57;;;1.40;74.90;;;;;;6246852;22;20219;-86
2022/01/12 12:08:59;;;;;;;15.67;12.20;;;1.20;78.10;;;;;;6248264;22;20173;-85
2022/01/12 12:11:29;;;;;;;18.10;12.57;;;1.40;78.00;;;;;;6247312;22;20276;-85
2022/01/12 12:14:03;;;;;;;17.40;12.17;;;1.50;76.60;;;;;;6247713;22;20228;-85
2022/01/12 12:16:30;;;;;;;17.60;12.43;;;1.70;76.50;;;;;;6246505;22;20268;-85
2022/01/12 12:18:58;;;;;;;18.77;13.07;;;1.80;76.50;;;;;;6247900;22;20176;-83
2022/01/12 12:21:25;;;;;;;16.50;12.70;;;1.50;76.30;;;;;;6247540;22;20197;-83
2022/01/12 12:23:53;;;;;;;19.63;12.67;;;1.50;77.50;;;;;;6253223;22;20172;-85
2022/01/12 12:26:22;;;;;;;18.50;13.50;;;1.60;76.60;;;;;;6249299;22;20172;-83
2022/01/12 12:29:05;;;;;;;17.17;12.93;;;1.40;76.60;;;;;;6250716;22;20211;-86
2022/01/12 12:31:32;;;;;;;17.90;12.97;;;1.50;76.60;;;;;;6253944;22;20236;-84
2022/01/12 12:34:04;;;;;;;22.07;13.43;;;1.50;76.80;;;;;;6254725;22;20224;-85
2022/01/12 12:36:31;;;;;;;16.07;12.57;;;1.60;76.70;;;;;;6256463;23;20208;-85
2022/01/12 12:39:07;;;;;;;21.80;13.10;;;1.80;75.50;;;;;;6257610;22;20229;-85
2022/01/12 12:41:43;;;;;;;18.00;13.07;;;2.00;74.90;;;;;;6257731;22;20252;-85
2022/01/12 12:44:23;;;;;;;18.20;12.93;;;2.10;73.80;;;;;;6258234;22;20244;-86
2022/01/12 12:46:52;;;;;;;16.93;12.40;;;1.90;72.00;;;;;;6255096;22;20276;-85
2022/01/12 12:49:19;;;;;;;16.07;12.33;;;1.90;72.10;;;;;;6252963;22;20189;-85
2022/01/12 12:51:47;;;;;;;18.70;12.80;;;1.80;73.50;;;;;;6250290;22;20196;-88
2022/01/12 12:54:15;;;;;;;21.97;12.93;;;1.80;74.10;;;;;;6250682;22;20169;-86
2022/01/12 12:56:48;;;;;;;20.83;13.63;;;1.70;75.40;;;;;;6250655;22;20197;-83
2022/01/12 12:59:15;;;;;;;19.37;13.20;;;1.80;75.50;;;;;;6251812;22;20157;-87
2022/01/12 13:01:44;;;;;;;20.47;13.43;;;1.50;75.90;;;;;;6248577;23;20193;-86
2022/01/12 13:04:23;;;;;;;19.03;13.57;;;1.60;76.40;;;;;;6251641;22;20250;-86
2022/01/12 13:06:50;;;;;;;21.33;13.87;;;1.70;75.80;;;;;;6252316;22;20204;-87
2022/01/12 13:09:18;;;;;;;20.37;13.87;;;1.70;75.80;;;;;;6253618;22;20196;-84
2022/01/12 13:11:46;;;;;;;19.60;13.97;;;1.60;76.90;;;;;;6253310;22;20273;-83
2022/01/12 13:14:16;;;;;;;21.60;13.80;;;1.60;76.20;;;;;;6254278;22;20171;-85
2022/01/12 13:16:50;;;;;;;21.83;15.03;;;1.60;77.30;;;;;;6253109;22;20257;-83
2022/01/12 13:21:06;;;;;;;23.13;15.73;;;1.40;77.70;;;;;;6254496;22;20161;-86
2022/01/12 13:22:23;;;;;;;20.73;14.20;;;1.50;77.20;;;;;;6256460;22;20197;-83
2022/01/12 13:24:50;;;;;;;24.07;15.47;;;1.50;77.70;;;;;;6254683;22;20635;-84
2022/01/12 13:27:17;;;;;;;25.47;15.87;;;1.50;77.00;;;;;;6252206;22;20276;-83
2022/01/12 13:29:47;;;;;;;21.60;15.07;;;1.40;77.80;;;;;;6251697;22;20176;-84
2022/01/12 13:32:17;;;;;;;22.77;15.57;;;1.50;79.10;;;;;;6250106;22;20201;-84
2022/01/12 13:34:56;;;;;;;24.83;15.73;;;1.50;78.30;;;;;;6250992;22;20602;-84
2022/01/12 13:37:23;;;;;;;21.30;15.27;;;1.50;78.60;;;;;;6250165;22;20198;-84
2022/01/12 13:40:07;;;;;;;27.40;15.63;;;1.30;78.20;;;;;;6252307;22;20224;-83
2022/01/12 13:42:45;;;;;;;23.27;14.60;;;1.30;78.00;;;;;;6250856;22;20209;-84
2022/01/12 13:45:15;;;;;;;24.07;14.90;;;1.10;78.00;;;;;;6249993;22;20157;-87
2022/01/12 13:47:49;;;;;;;23.83;15.13;;;0.90;79.10;;;;;;6250354;22;20197;-85
2022/01/12 13:50:17;;;;;;;20.57;14.20;;;0.70;80.80;;;;;;6251187;22;20154;-84
2022/01/12 13:52:54;;;;;;;23.23;14.23;;;0.70;83.10;;;;;;6249564;22;20200;-85